Terminal Aerodrome Forecast
Issued by NWS North Platte, NE

Home | Current Version | Previous Version | Graphics & Text | Print | Product List | Glossary On
Versions: 1 2 3 4 5 6 7 8 9 10 11 12 13 14 15
000
FTUS43 KLBF 011129
TAFVTN
TAF
KVTN 011129Z 0112/0212 VRB05KT P6SM VCTS SCT100CB
     FM011500 21012G21KT P6SM SCT200
     FM011800 23015G24KT P6SM SCT250 PROB30 0122/0204 5SM -TSRA
      BKN090CB
     FM020400 VRB06KT P6SM SKC=

USA.gov is the U.S. government's official web portal to all federal, state and local government web resources and services.